PWSweather.com
Personal Weather Stations
Station Observations
BURKEWX
Burke, VA

Burke, VA

Lat: 38.796, Lon: -77.256

Elevation: 308

Station Type: LaCrosse WS2308

High Low Average
Temperature 67.8°F19.9°C 39.9°F4.4°C 54.6°F12.6°C
Dew Point 40.5°F4.7°C 23.5°F-4.7°C 32.7°F0.4°C
Winds 5.1 mph 8.2 kmh Calm Calm 2.0 mph S3.2 kmh S
Wind Gusts 11.4 mph18.3 kmh -- 4.0 mph6.4 kmh
Humidity 85% 23% 50%
Pressure 29.55 in1000.7 mb 29.39 in995.3 mb -
Precipitation 0.00 in0.0 mm - -
Hour Temp Dew Point Humidity Winds Wind Gusts Pressure Precip Precip Rate Daily Precip Total
12:03 AM 52.7°F11.5°C 36.9°F2.7°C 55% 2.0 mph 3.2 kmh 6.3 mph10.1 kmh 29.56 in1001.0 mb 0.00 in0.0 mm 0.00 in/hr0.0 mm/hr 0.00 in0.0 mm
12:08 AM 52.7°F11.5°C 36.9°F2.7°C 55% 1.8 mph NW2.9 kmh NW 4.7 mph7.6 kmh 29.56 in1001.0 mb 0.00 in0.0 mm 0.00 in/hr0.0 mm/hr 0.00 in0.0 mm
12:14 AM 52.5°F11.4°C 36.7°F2.6°C 55% 3.0 mph NW4.8 kmh NW 4.3 mph6.9 kmh 29.56 in1001.0 mb 0.00 in0.0 mm 0.00 in/hr0.0 mm/hr 0.00 in0.0 mm
12:18 AM 52.3°F11.3°C 37.0°F2.8°C 56% Calm Calm 4.3 mph6.9 kmh 29.56 in1001.0 mb 0.00 in0.0 mm 0.00 in/hr0.0 mm/hr 0.00 in0.0 mm
12:23 AM 52.3°F11.3°C 37.0°F2.8°C 56% 3.2 mph W5.1 kmh W 4.0 mph6.4 kmh 29.56 in1001.0 mb 0.00 in0.0 mm 0.00 in/hr0.0 mm/hr 0.00 in0.0 mm
12:29 AM 52.0°F11.1°C 36.7°F2.6°C 56% Calm Calm 4.0 mph6.4 kmh 29.56 in1001.0 mb 0.00 in0.0 mm 0.00 in/hr0.0 mm/hr 0.00 in0.0 mm
12:32 AM 52.0°F11.1°C 36.7°F2.6°C 56% Calm Calm 4.0 mph6.4 kmh 29.56 in1001.0 mb 0.00 in0.0 mm 0.00 in/hr0.0 mm/hr 0.00 in0.0 mm
12:39 AM 51.6°F10.9°C 36.3°F2.4°C 56% Calm Calm -- 29.55 in1000.7 mb 0.00 in0.0 mm 0.00 in/hr0.0 mm/hr 0.00 in0.0 mm
12:45 AM 51.6°F10.9°C 36.8°F2.7°C 57% Calm Calm -- 29.55 in1000.7 mb 0.00 in0.0 mm 0.00 in/hr0.0 mm/hr 0.00 in0.0 mm
12:49 AM 51.4°F10.8°C 37.1°F2.8°C 58% Calm Calm -- 29.55 in1000.7 mb 0.00 in0.0 mm 0.00 in/hr0.0 mm/hr 0.00 in0.0 mm
12:58 AM 50.9°F10.5°C 37.0°F2.8°C 59% Calm Calm -- 29.55 in1000.7 mb 0.00 in0.0 mm 0.00 in/hr0.0 mm/hr 0.00 in0.0 mm
01:01 AM 50.7°F10.4°C 36.9°F2.7°C 59% Calm Calm -- 29.55 in1000.7 mb 0.00 in0.0 mm 0.00 in/hr0.0 mm/hr 0.00 in0.0 mm
01:08 AM 50.4°F10.2°C 37.0°F2.8°C 60% Calm Calm -- 29.54 in1000.3 mb 0.00 in0.0 mm 0.00 in/hr0.0 mm/hr 0.00 in0.0 mm
01:15 AM 50.0°F10.0°C 36.7°F2.6°C 60% Calm Calm -- 29.54 in1000.3 mb 0.00 in0.0 mm 0.00 in/hr0.0 mm/hr 0.00 in0.0 mm
01:28 AM 49.6°F9.8°C 36.7°F2.6°C 61% Calm Calm -- 29.54 in1000.3 mb 0.00 in0.0 mm 0.00 in/hr0.0 mm/hr 0.00 in0.0 mm
01:38 AM 48.9°F9.4°C 36.5°F2.5°C 62% Calm Calm -- 29.54 in1000.3 mb 0.00 in0.0 mm 0.00 in/hr0.0 mm/hr 0.00 in0.0 mm
01:46 AM 48.6°F9.2°C 36.9°F2.7°C 64% Calm Calm -- 29.53 in1000.0 mb 0.00 in0.0 mm 0.00 in/hr0.0 mm/hr 0.00 in0.0 mm
01:57 AM 48.0°F8.9°C 36.8°F2.7°C 65% Calm Calm -- 29.52 in999.7 mb 0.00 in0.0 mm 0.00 in/hr0.0 mm/hr 0.00 in0.0 mm
02:04 AM 47.5°F8.6°C 36.6°F2.6°C 66% Calm Calm -- 29.53 in1000.0 mb 0.00 in0.0 mm 0.00 in/hr0.0 mm/hr 0.00 in0.0 mm
02:15 AM 47.1°F8.4°C 36.3°F2.4°C 66% Calm Calm -- 29.53 in1000.0 mb 0.00 in0.0 mm 0.00 in/hr0.0 mm/hr 0.00 in0.0 mm
02:32 AM 46.8°F8.2°C 36.4°F2.4°C 67% Calm Calm -- 29.53 in1000.0 mb 0.00 in0.0 mm 0.00 in/hr0.0 mm/hr 0.00 in0.0 mm
02:53 AM 46.0°F7.8°C 36.5°F2.5°C 69% Calm Calm -- 29.52 in999.7 mb 0.00 in0.0 mm 0.00 in/hr0.0 mm/hr 0.00 in0.0 mm
02:57 AM 45.9°F7.7°C 36.3°F2.4°C 69% Calm Calm -- 29.52 in999.7 mb 0.00 in0.0 mm 0.00 in/hr0.0 mm/hr 0.00 in0.0 mm
03:04 AM 45.3°F7.4°C 36.5°F2.5°C 71% Calm Calm -- 29.52 in999.7 mb 0.00 in0.0 mm 0.00 in/hr0.0 mm/hr 0.00 in0.0 mm
03:08 AM 45.3°F7.4°C 36.5°F2.5°C 71% Calm Calm -- 29.52 in999.7 mb 0.00 in0.0 mm 0.00 in/hr0.0 mm/hr 0.00 in0.0 mm
03:16 AM 45.1°F7.3°C 36.3°F2.4°C 71% Calm Calm -- 29.53 in1000.0 mb 0.00 in0.0 mm 0.00 in/hr0.0 mm/hr 0.00 in0.0 mm
03:21 AM 45.0°F7.2°C 36.5°F2.5°C 72% Calm Calm -- 29.53 in1000.0 mb 0.00 in0.0 mm 0.00 in/hr0.0 mm/hr 0.00 in0.0 mm
03:29 AM 45.0°F7.2°C 36.5°F2.5°C 72% Calm Calm -- 29.53 in1000.0 mb 0.00 in0.0 mm 0.00 in/hr0.0 mm/hr 0.00 in0.0 mm
03:34 AM 44.4°F6.9°C 36.3°F2.4°C 73% Calm Calm -- 29.52 in999.7 mb 0.00 in0.0 mm 0.00 in/hr0.0 mm/hr 0.00 in0.0 mm
03:39 AM 44.2°F6.8°C 36.4°F2.4°C 74% Calm Calm -- 29.52 in999.7 mb 0.00 in0.0 mm 0.00 in/hr0.0 mm/hr 0.00 in0.0 mm
03:44 AM 43.9°F6.6°C 36.4°F2.4°C 75% Calm Calm -- 29.52 in999.7 mb 0.00 in0.0 mm 0.00 in/hr0.0 mm/hr 0.00 in0.0 mm
03:49 AM 43.7°F6.5°C 36.3°F2.4°C 75% Calm Calm -- 29.52 in999.7 mb 0.00 in0.0 mm 0.00 in/hr0.0 mm/hr 0.00 in0.0 mm
03:54 AM 43.5°F6.4°C 36.1°F2.3°C 75% Calm Calm -- 29.52 in999.7 mb 0.00 in0.0 mm 0.00 in/hr0.0 mm/hr 0.00 in0.0 mm
03:59 AM 43.5°F6.4°C 36.4°F2.4°C 76% Calm Calm -- 29.52 in999.7 mb 0.00 in0.0 mm 0.00 in/hr0.0 mm/hr 0.00 in0.0 mm
04:05 AM 43.3°F6.3°C 36.2°F2.3°C 76% Calm Calm -- 29.52 in999.7 mb 0.00 in0.0 mm 0.00 in/hr0.0 mm/hr 0.00 in0.0 mm
04:10 AM 43.2°F6.2°C 36.1°F2.3°C 76% Calm Calm -- 29.52 in999.7 mb 0.00 in0.0 mm 0.00 in/hr0.0 mm/hr 0.00 in0.0 mm
04:15 AM 43.2°F6.2°C 36.4°F2.4°C 77% Calm Calm -- 29.52 in999.7 mb 0.00 in0.0 mm 0.00 in/hr0.0 mm/hr 0.00 in0.0 mm
04:20 AM 43.0°F6.1°C 36.2°F2.3°C 77% Calm Calm -- 29.52 in999.7 mb 0.00 in0.0 mm 0.00 in/hr0.0 mm/hr 0.00 in0.0 mm
04:25 AM 43.0°F6.1°C 36.2°F2.3°C 77% Calm Calm -- 29.52 in999.7 mb 0.00 in0.0 mm 0.00 in/hr0.0 mm/hr 0.00 in0.0 mm
04:30 AM 42.8°F6.0°C 36.4°F2.4°C 78% Calm Calm -- 29.51 in999.3 mb 0.00 in0.0 mm 0.00 in/hr0.0 mm/hr 0.00 in0.0 mm
04:35 AM 42.6°F5.9°C 36.2°F2.3°C 78% Calm Calm -- 29.51 in999.3 mb 0.00 in0.0 mm 0.00 in/hr0.0 mm/hr 0.00 in0.0 mm
04:40 AM 42.4°F5.8°C 36.0°F2.2°C 78% Calm Calm -- 29.51 in999.3 mb 0.00 in0.0 mm 0.00 in/hr0.0 mm/hr 0.00 in0.0 mm
04:45 AM 42.3°F5.7°C 36.2°F2.3°C 79% Calm Calm -- 29.51 in999.3 mb 0.00 in0.0 mm 0.00 in/hr0.0 mm/hr 0.00 in0.0 mm
04:50 AM 41.9°F5.5°C 36.0°F2.2°C 79% Calm Calm -- 29.51 in999.3 mb 0.00 in0.0 mm 0.00 in/hr0.0 mm/hr 0.00 in0.0 mm
04:55 AM 41.9°F5.5°C 35.8°F2.1°C 79% Calm Calm -- 29.51 in999.3 mb 0.00 in0.0 mm 0.00 in/hr0.0 mm/hr 0.00 in0.0 mm
05:00 AM 41.7°F5.4°C 36.0°F2.2°C 80% Calm Calm -- 29.51 in999.3 mb 0.00 in0.0 mm 0.00 in/hr0.0 mm/hr 0.00 in0.0 mm
05:05 AM 41.5°F5.3°C 35.8°F2.1°C 80% Calm Calm -- 29.51 in999.3 mb 0.00 in0.0 mm 0.00 in/hr0.0 mm/hr 0.00 in0.0 mm
05:10 AM 41.5°F5.3°C 35.8°F2.1°C 80% Calm Calm -- 29.51 in999.3 mb 0.00 in0.0 mm 0.00 in/hr0.0 mm/hr 0.00 in0.0 mm
05:15 AM 41.4°F5.2°C 35.9°F2.2°C 81% Calm Calm -- 29.51 in999.3 mb 0.00 in0.0 mm 0.00 in/hr0.0 mm/hr 0.00 in0.0 mm
05:20 AM 41.2°F5.1°C 35.7°F2.1°C 81% Calm Calm -- 29.51 in999.3 mb 0.00 in0.0 mm 0.00 in/hr0.0 mm/hr 0.00 in0.0 mm
05:25 AM 41.2°F5.1°C 35.7°F2.1°C 81% Calm Calm -- 29.51 in999.3 mb 0.00 in0.0 mm 0.00 in/hr0.0 mm/hr 0.00 in0.0 mm
05:30 AM 41.2°F5.1°C 36.0°F2.2°C 82% Calm Calm -- 29.51 in999.3 mb 0.00 in0.0 mm 0.00 in/hr0.0 mm/hr 0.00 in0.0 mm
05:35 AM 41.0°F5.0°C 36.0°F2.2°C 82% Calm Calm -- 29.52 in999.7 mb 0.00 in0.0 mm 0.00 in/hr0.0 mm/hr 0.00 in0.0 mm
05:40 AM 41.0°F5.0°C 35.9°F2.2°C 82% Calm Calm -- 29.51 in999.3 mb 0.00 in0.0 mm 0.00 in/hr0.0 mm/hr 0.00 in0.0 mm
05:45 AM 40.8°F4.9°C 35.7°F2.1°C 82% Calm Calm -- 29.51 in999.3 mb 0.00 in0.0 mm 0.00 in/hr0.0 mm/hr 0.00 in0.0 mm
05:50 AM 40.8°F4.9°C 35.7°F2.1°C 82% Calm Calm -- 29.52 in999.7 mb 0.00 in0.0 mm 0.00 in/hr0.0 mm/hr 0.00 in0.0 mm
05:55 AM 40.8°F4.9°C 35.7°F2.1°C 82% Calm Calm -- 29.51 in999.3 mb 0.00 in0.0 mm 0.00 in/hr0.0 mm/hr 0.00 in0.0 mm
06:00 AM 40.8°F4.9°C 36.0°F2.2°C 83% Calm Calm -- 29.52 in999.7 mb 0.00 in0.0 mm 0.00 in/hr0.0 mm/hr 0.00 in0.0 mm
06:05 AM 40.6°F4.8°C 35.8°F2.1°C 83% Calm Calm -- 29.52 in999.7 mb 0.00 in0.0 mm 0.00 in/hr0.0 mm/hr 0.00 in0.0 mm
06:10 AM 40.5°F4.7°C 35.7°F2.1°C 83% Calm Calm -- 29.52 in999.7 mb 0.00 in0.0 mm 0.00 in/hr0.0 mm/hr 0.00 in0.0 mm
06:15 AM 40.3°F4.6°C 35.5°F1.9°C 83% Calm Calm -- 29.52 in999.7 mb 0.00 in0.0 mm 0.00 in/hr0.0 mm/hr 0.00 in0.0 mm
06:20 AM 40.3°F4.6°C 35.5°F1.9°C 83% Calm Calm -- 29.52 in999.7 mb 0.00 in0.0 mm 0.00 in/hr0.0 mm/hr 0.00 in0.0 mm
06:25 AM 40.3°F4.6°C 35.8°F2.1°C 84% Calm Calm -- 29.52 in999.7 mb 0.00 in0.0 mm 0.00 in/hr0.0 mm/hr 0.00 in0.0 mm
06:32 AM 40.3°F4.6°C 35.8°F2.1°C 84% Calm Calm -- 29.52 in999.7 mb 0.00 in0.0 mm 0.00 in/hr0.0 mm/hr 0.00 in0.0 mm
06:38 AM 40.1°F4.5°C 35.6°F2.0°C 84% Calm Calm -- 29.51 in999.3 mb 0.00 in0.0 mm 0.00 in/hr0.0 mm/hr 0.00 in0.0 mm
06:43 AM 39.9°F4.4°C 35.4°F1.9°C 84% Calm Calm -- 29.52 in999.7 mb 0.00 in0.0 mm 0.00 in/hr0.0 mm/hr 0.00 in0.0 mm
06:48 AM 39.9°F4.4°C 35.4°F1.9°C 84% Calm Calm -- 29.52 in999.7 mb 0.00 in0.0 mm 0.00 in/hr0.0 mm/hr 0.00 in0.0 mm
06:53 AM 39.9°F4.4°C 35.4°F1.9°C 84% Calm Calm -- 29.52 in999.7 mb 0.00 in0.0 mm 0.00 in/hr0.0 mm/hr 0.00 in0.0 mm
06:59 AM 39.9°F4.4°C 35.7°F2.1°C 85% Calm Calm -- 29.52 in999.7 mb 0.00 in0.0 mm 0.00 in/hr0.0 mm/hr 0.00 in0.0 mm
07:04 AM 39.9°F4.4°C 35.7°F2.1°C 85% Calm Calm -- 29.52 in999.7 mb 0.00 in0.0 mm 0.00 in/hr0.0 mm/hr 0.00 in0.0 mm
07:09 AM 39.9°F4.4°C 35.7°F2.1°C 85% Calm Calm -- 29.52 in999.7 mb 0.00 in0.0 mm 0.00 in/hr0.0 mm/hr 0.00 in0.0 mm
07:14 AM 39.9°F4.4°C 35.7°F2.1°C 85% Calm Calm -- 29.52 in999.7 mb 0.00 in0.0 mm 0.00 in/hr0.0 mm/hr 0.00 in0.0 mm
07:19 AM 39.9°F4.4°C 35.7°F2.1°C 85% Calm Calm -- 29.52 in999.7 mb 0.00 in0.0 mm 0.00 in/hr0.0 mm/hr 0.00 in0.0 mm
07:24 AM 39.9°F4.4°C 35.7°F2.1°C 85% Calm Calm -- 29.52 in999.7 mb 0.00 in0.0 mm 0.00 in/hr0.0 mm/hr 0.00 in0.0 mm
07:29 AM 39.9°F4.4°C 35.7°F2.1°C 85% Calm Calm -- 29.52 in999.7 mb 0.00 in0.0 mm 0.00 in/hr0.0 mm/hr 0.00 in0.0 mm
07:34 AM 40.1°F4.5°C 35.9°F2.2°C 85% Calm Calm -- 29.52 in999.7 mb 0.00 in0.0 mm 0.00 in/hr0.0 mm/hr 0.00 in0.0 mm
07:39 AM 40.3°F4.6°C 36.1°F2.3°C 85% Calm Calm -- 29.52 in999.7 mb 0.00 in0.0 mm 0.00 in/hr0.0 mm/hr 0.00 in0.0 mm
07:44 AM 40.5°F4.7°C 36.2°F2.3°C 85% Calm Calm -- 29.52 in999.7 mb 0.00 in0.0 mm 0.00 in/hr0.0 mm/hr 0.00 in0.0 mm
07:49 AM 40.6°F4.8°C 36.4°F2.4°C 85% Calm Calm -- 29.52 in999.7 mb 0.00 in0.0 mm 0.00 in/hr0.0 mm/hr 0.00 in0.0 mm
07:54 AM 41.0°F5.0°C 36.8°F2.7°C 85% Calm Calm -- 29.52 in999.7 mb 0.00 in0.0 mm 0.00 in/hr0.0 mm/hr 0.00 in0.0 mm
07:59 AM 41.4°F5.2°C 37.1°F2.8°C 85% Calm Calm -- 29.52 in999.7 mb 0.00 in0.0 mm 0.00 in/hr0.0 mm/hr 0.00 in0.0 mm
08:04 AM 41.9°F5.5°C 37.5°F3.1°C 85% Calm Calm -- 29.52 in999.7 mb 0.00 in0.0 mm 0.00 in/hr0.0 mm/hr 0.00 in0.0 mm
08:09 AM 42.4°F5.8°C 38.2°F3.4°C 85% Calm Calm -- 29.52 in999.7 mb 0.00 in0.0 mm 0.00 in/hr0.0 mm/hr 0.00 in0.0 mm
08:14 AM 43.2°F6.2°C 38.6°F3.7°C 84% Calm Calm -- 29.52 in999.7 mb 0.00 in0.0 mm 0.00 in/hr0.0 mm/hr 0.00 in0.0 mm
08:19 AM 43.9°F6.6°C 39.0°F3.9°C 83% Calm Calm -- 29.52 in999.7 mb 0.00 in0.0 mm 0.00 in/hr0.0 mm/hr 0.00 in0.0 mm
08:24 AM 44.8°F7.1°C 39.3°F4.1°C 82% Calm Calm -- 29.52 in999.7 mb 0.00 in0.0 mm 0.00 in/hr0.0 mm/hr 0.00 in0.0 mm
08:29 AM 45.5°F7.5°C 39.7°F4.3°C 80% Calm Calm -- 29.52 in999.7 mb 0.00 in0.0 mm 0.00 in/hr0.0 mm/hr 0.00 in0.0 mm
08:34 AM 46.6°F8.1°C 40.1°F4.5°C 78% 2.5 mph WNW4.0 kmh WNW 2.5 mph4.0 kmh 29.52 in999.7 mb 0.00 in0.0 mm 0.00 in/hr0.0 mm/hr 0.00 in0.0 mm
08:39 AM 47.5°F8.6°C 39.9°F4.4°C 75% 1.6 mph W2.6 kmh W 2.5 mph4.0 kmh 29.52 in999.7 mb 0.00 in0.0 mm 0.00 in/hr0.0 mm/hr 0.00 in0.0 mm
08:44 AM 48.6°F9.2°C 39.9°F4.4°C 72% 1.6 mph W2.6 kmh W 2.9 mph4.7 kmh 29.51 in999.3 mb 0.00 in0.0 mm 0.00 in/hr0.0 mm/hr 0.00 in0.0 mm
08:49 AM 49.6°F9.8°C 39.9°F4.4°C 69% 2.6 mph SW4.2 kmh SW 3.1 mph5.0 kmh 29.52 in999.7 mb 0.00 in0.0 mm 0.00 in/hr0.0 mm/hr 0.00 in0.0 mm
08:54 AM 50.4°F10.2°C 39.4°F4.1°C 65% 1.8 mph S2.9 kmh S 3.1 mph5.0 kmh 29.51 in999.3 mb 0.00 in0.0 mm 0.00 in/hr0.0 mm/hr 0.00 in0.0 mm
08:59 AM 51.1°F10.6°C 39.7°F4.3°C 65% 2.8 mph WSW4.5 kmh WSW 7.2 mph11.6 kmh 29.51 in999.3 mb 0.00 in0.0 mm 0.00 in/hr0.0 mm/hr 0.00 in0.0 mm
09:04 AM 51.6°F10.9°C 39.4°F4.1°C 63% 2.1 mph SW3.4 kmh SW 7.2 mph11.6 kmh 29.51 in999.3 mb 0.00 in0.0 mm 0.00 in/hr0.0 mm/hr 0.00 in0.0 mm
09:09 AM 52.3°F11.3°C 40.1°F4.5°C 63% 2.8 mph SW4.5 kmh SW 4.7 mph7.6 kmh 29.51 in999.3 mb 0.00 in0.0 mm 0.00 in/hr0.0 mm/hr 0.00 in0.0 mm
09:14 AM 53.2°F11.8°C 40.5°F4.7°C 62% 1.8 mph WSW2.9 kmh WSW 3.6 mph5.8 kmh 29.50 in999.0 mb 0.00 in0.0 mm 0.00 in/hr0.0 mm/hr 0.00 in0.0 mm
09:19 AM 53.4°F11.9°C 39.9°F4.4°C 60% 2.1 mph WNW3.4 kmh WNW 4.3 mph6.9 kmh 29.50 in999.0 mb 0.00 in0.0 mm 0.00 in/hr0.0 mm/hr 0.00 in0.0 mm
09:24 AM 53.4°F11.9°C 39.5°F4.2°C 59% 1.7 mph W2.7 kmh W 4.3 mph6.9 kmh 29.51 in999.3 mb 0.00 in0.0 mm 0.00 in/hr0.0 mm/hr 0.00 in0.0 mm
09:29 AM 53.8°F12.1°C 39.8°F4.3°C 59% 2.3 mph SW3.7 kmh SW 2.9 mph4.7 kmh 29.50 in999.0 mb 0.00 in0.0 mm 0.00 in/hr0.0 mm/hr 0.00 in0.0 mm
09:34 AM 54.1°F12.3°C 40.1°F4.5°C 59% 2.9 mph WNW4.7 kmh WNW 3.6 mph5.8 kmh 29.51 in999.3 mb 0.00 in0.0 mm 0.00 in/hr0.0 mm/hr 0.00 in0.0 mm
09:39 AM 54.5°F12.5°C 40.0°F4.4°C 58% 2.2 mph WSW3.5 kmh WSW 3.6 mph5.8 kmh 29.51 in999.3 mb 0.00 in0.0 mm 0.00 in/hr0.0 mm/hr 0.00 in0.0 mm
09:44 AM 54.9°F12.7°C 39.4°F4.1°C 56% 1.9 mph SE3.1 kmh SE 3.6 mph5.8 kmh 29.50 in999.0 mb 0.00 in0.0 mm 0.00 in/hr0.0 mm/hr 0.00 in0.0 mm
09:49 AM 55.2°F12.9°C 39.7°F4.3°C 56% Calm Calm 3.6 mph5.8 kmh 29.50 in999.0 mb 0.00 in0.0 mm 0.00 in/hr0.0 mm/hr 0.00 in0.0 mm
09:54 AM 55.9°F13.3°C 40.4°F4.7°C 56% Calm Calm 2.0 mph3.2 kmh 29.51 in999.3 mb 0.00 in0.0 mm 0.00 in/hr0.0 mm/hr 0.00 in0.0 mm
09:59 AM 56.3°F13.5°C 39.8°F4.3°C 54% 2.6 mph SW4.2 kmh SW 4.0 mph6.4 kmh 29.51 in999.3 mb 0.00 in0.0 mm 0.00 in/hr0.0 mm/hr 0.00 in0.0 mm
10:04 AM 56.5°F13.6°C 39.5°F4.2°C 53% 1.8 mph SW2.9 kmh SW 4.0 mph6.4 kmh 29.50 in999.0 mb 0.00 in0.0 mm 0.00 in/hr0.0 mm/hr 0.00 in0.0 mm
10:09 AM 56.8°F13.8°C 39.4°F4.1°C 52% Calm Calm 3.4 mph5.5 kmh 29.50 in999.0 mb 0.00 in0.0 mm 0.00 in/hr0.0 mm/hr 0.00 in0.0 mm
10:14 AM 57.0°F13.9°C 39.6°F4.2°C 52% Calm Calm 3.1 mph5.0 kmh 29.49 in998.6 mb 0.00 in0.0 mm 0.00 in/hr0.0 mm/hr 0.00 in0.0 mm
10:19 AM 57.0°F13.9°C 38.1°F3.4°C 49% 1.1 mph SW1.8 kmh SW 3.4 mph5.5 kmh 29.49 in998.6 mb 0.00 in0.0 mm 0.00 in/hr0.0 mm/hr 0.00 in0.0 mm
10:24 AM 57.0°F13.9°C 36.4°F2.4°C 46% 4.0 mph NW6.4 kmh NW 6.3 mph10.1 kmh 29.49 in998.6 mb 0.00 in0.0 mm 0.00 in/hr0.0 mm/hr 0.00 in0.0 mm
10:29 AM 57.4°F14.1°C 36.1°F2.3°C 45% Calm Calm 6.3 mph10.1 kmh 29.49 in998.6 mb 0.00 in0.0 mm 0.00 in/hr0.0 mm/hr 0.00 in0.0 mm
10:34 AM 57.9°F14.4°C 34.9°F1.6°C 42% 3.1 mph W5.0 kmh W 5.6 mph9.0 kmh 29.49 in998.6 mb 0.00 in0.0 mm 0.00 in/hr0.0 mm/hr 0.00 in0.0 mm
10:39 AM 58.5°F14.7°C 34.2°F1.2°C 40% 0.9 mph W1.4 kmh W 5.6 mph9.0 kmh 29.49 in998.6 mb 0.00 in0.0 mm 0.00 in/hr0.0 mm/hr 0.00 in0.0 mm
10:44 AM 58.8°F14.9°C 33.8°F1.0°C 39% 2.7 mph NW4.3 kmh NW 3.6 mph5.8 kmh 29.49 in998.6 mb 0.00 in0.0 mm 0.00 in/hr0.0 mm/hr 0.00 in0.0 mm
10:49 AM 59.4°F15.2°C 32.9°F0.5°C 37% 3.8 mph WNW6.1 kmh WNW 6.5 mph10.5 kmh 29.49 in998.6 mb 0.00 in0.0 mm 0.00 in/hr0.0 mm/hr 0.00 in0.0 mm
10:54 AM 59.7°F15.4°C 31.8°F-0.1°C 35% 3.2 mph WNW5.1 kmh WNW 6.5 mph10.5 kmh 29.49 in998.6 mb 0.00 in0.0 mm 0.00 in/hr0.0 mm/hr 0.00 in0.0 mm
10:59 AM 59.7°F15.4°C 32.5°F0.3°C 36% 2.6 mph WSW4.2 kmh WSW 6.5 mph10.5 kmh 29.48 in998.3 mb 0.00 in0.0 mm 0.00 in/hr0.0 mm/hr 0.00 in0.0 mm
11:04 AM 60.1°F15.6°C 32.1°F0.1°C 35% 1.8 mph NW2.9 kmh NW 5.4 mph8.7 kmh 29.48 in998.3 mb 0.00 in0.0 mm 0.00 in/hr0.0 mm/hr 0.00 in0.0 mm
11:09 AM 59.5°F15.3°C 30.9°F-0.6°C 34% 2.3 mph NW3.7 kmh NW 3.8 mph6.1 kmh 29.48 in998.3 mb 0.00 in0.0 mm 0.00 in/hr0.0 mm/hr 0.00 in0.0 mm
11:14 AM 59.4°F15.2°C 32.2°F0.1°C 36% 4.2 mph NW6.8 kmh NW 4.3 mph6.9 kmh 29.48 in998.3 mb 0.00 in0.0 mm 0.00 in/hr0.0 mm/hr 0.00 in0.0 mm
11:19 AM 59.4°F15.2°C 31.5°F-0.3°C 35% 2.1 mph NNW3.4 kmh NNW 4.3 mph6.9 kmh 29.48 in998.3 mb 0.00 in0.0 mm 0.00 in/hr0.0 mm/hr 0.00 in0.0 mm
11:24 AM 58.8°F14.9°C 31.0°F-0.6°C 35% 3.0 mph WNW4.8 kmh WNW 5.4 mph8.7 kmh 29.48 in998.3 mb 0.00 in0.0 mm 0.00 in/hr0.0 mm/hr 0.00 in0.0 mm
11:29 AM 58.8°F14.9°C 30.3°F-0.9°C 34% 1.1 mph N1.8 kmh N 8.1 mph13.0 kmh 29.48 in998.3 mb 0.00 in0.0 mm 0.00 in/hr0.0 mm/hr 0.00 in0.0 mm
11:34 AM 59.4°F15.2°C 30.8°F-0.7°C 34% 2.2 mph WSW3.5 kmh WSW 8.1 mph13.0 kmh 29.48 in998.3 mb 0.00 in0.0 mm 0.00 in/hr0.0 mm/hr 0.00 in0.0 mm
11:39 AM 59.5°F15.3°C 30.2°F-1.0°C 33% 2.8 mph SW4.5 kmh SW 5.6 mph9.0 kmh 29.47 in998.0 mb 0.00 in0.0 mm 0.00 in/hr0.0 mm/hr 0.00 in0.0 mm
11:44 AM 59.5°F15.3°C 30.9°F-0.6°C 34% 2.3 mph NW3.7 kmh NW 5.6 mph9.0 kmh 29.47 in998.0 mb 0.00 in0.0 mm 0.00 in/hr0.0 mm/hr 0.00 in0.0 mm
11:49 AM 60.1°F15.6°C 31.4°F-0.3°C 34% 3.1 mph WSW5.0 kmh WSW 8.9 mph14.3 kmh 29.47 in998.0 mb 0.00 in0.0 mm 0.00 in/hr0.0 mm/hr 0.00 in0.0 mm
11:54 AM 60.6°F15.9°C 31.1°F-0.5°C 33% 2.3 mph W3.7 kmh W 8.9 mph14.3 kmh 29.47 in998.0 mb 0.00 in0.0 mm 0.00 in/hr0.0 mm/hr 0.00 in0.0 mm
11:59 AM 61.0°F16.1°C 30.7°F-0.7°C 32% 2.2 mph SW3.5 kmh SW 4.5 mph7.2 kmh 29.47 in998.0 mb 0.00 in0.0 mm 0.00 in/hr0.0 mm/hr 0.00 in0.0 mm
12:04 PM 61.2°F16.2°C 30.9°F-0.6°C 32% 1.9 mph S3.1 kmh S 5.6 mph9.0 kmh 29.47 in998.0 mb 0.00 in0.0 mm 0.00 in/hr0.0 mm/hr 0.00 in0.0 mm
12:09 PM 61.3°F16.3°C 31.0°F-0.6°C 32% 1.9 mph WSW3.1 kmh WSW 5.6 mph9.0 kmh 29.46 in997.6 mb 0.00 in0.0 mm 0.00 in/hr0.0 mm/hr 0.00 in0.0 mm
12:14 PM 61.0°F16.1°C 31.4°F-0.3°C 34% 1.8 mph WSW2.9 kmh WSW 3.8 mph6.1 kmh 29.46 in997.6 mb 0.00 in0.0 mm 0.00 in/hr0.0 mm/hr 0.00 in0.0 mm
12:19 PM 61.5°F16.4°C 32.6°F0.3°C 34% 3.4 mph W5.5 kmh W 6.5 mph10.5 kmh 29.46 in997.6 mb 0.00 in0.0 mm 0.00 in/hr0.0 mm/hr 0.00 in0.0 mm
12:24 PM 61.0°F16.1°C 31.4°F-0.3°C 33% 2.0 mph NW3.2 kmh NW 6.5 mph10.5 kmh 29.46 in997.6 mb 0.00 in0.0 mm 0.00 in/hr0.0 mm/hr 0.00 in0.0 mm
12:29 PM 60.8°F16.0°C 30.6°F-0.8°C 32% 2.9 mph W4.7 kmh W 4.5 mph7.2 kmh 29.46 in997.6 mb 0.00 in0.0 mm 0.00 in/hr0.0 mm/hr 0.00 in0.0 mm
12:34 PM 62.2°F16.8°C 30.4°F-0.9°C 30% 5.1 mph W8.2 kmh W 6.5 mph10.5 kmh 29.46 in997.6 mb 0.00 in0.0 mm 0.00 in/hr0.0 mm/hr 0.00 in0.0 mm
12:39 PM 62.8°F17.1°C 29.9°F-1.2°C 29% 3.0 mph W4.8 kmh W 6.5 mph10.5 kmh 29.46 in997.6 mb 0.00 in0.0 mm 0.00 in/hr0.0 mm/hr 0.00 in0.0 mm
12:44 PM 63.1°F17.3°C 29.3°F-1.5°C 28% 4.3 mph NW6.9 kmh NW 9.6 mph15.4 kmh 29.46 in997.6 mb 0.00 in0.0 mm 0.00 in/hr0.0 mm/hr 0.00 in0.0 mm
12:49 PM 63.1°F17.3°C 30.2°F-1.0°C 29% 2.7 mph WNW4.3 kmh WNW 9.6 mph15.4 kmh 29.46 in997.6 mb 0.00 in0.0 mm 0.00 in/hr0.0 mm/hr 0.00 in0.0 mm
12:54 PM 63.1°F17.3°C 30.2°F-1.0°C 29% 2.8 mph W4.5 kmh W 7.6 mph12.2 kmh 29.45 in997.3 mb 0.00 in0.0 mm 0.00 in/hr0.0 mm/hr 0.00 in0.0 mm
12:59 PM 63.5°F17.5°C 30.6°F-0.8°C 29% 2.3 mph NNW3.7 kmh NNW 6.3 mph10.1 kmh 29.45 in997.3 mb 0.00 in0.0 mm 0.00 in/hr0.0 mm/hr 0.00 in0.0 mm
01:04 PM 63.1°F17.3°C 31.2°F-0.4°C 30% 3.4 mph NW5.5 kmh NW 6.0 mph9.7 kmh 29.45 in997.3 mb 0.00 in0.0 mm 0.00 in/hr0.0 mm/hr 0.00 in0.0 mm
01:09 PM 62.8°F17.1°C 29.9°F-1.2°C 29% 2.2 mph W3.5 kmh W 6.0 mph9.7 kmh 29.45 in997.3 mb 0.00 in0.0 mm 0.00 in/hr0.0 mm/hr 0.00 in0.0 mm
01:14 PM 62.4°F16.9°C 29.6°F-1.3°C 29% 2.0 mph NW3.2 kmh NW 5.1 mph8.2 kmh 29.45 in997.3 mb 0.00 in0.0 mm 0.00 in/hr0.0 mm/hr 0.00 in0.0 mm
01:19 PM 61.5°F16.4°C 28.8°F-1.8°C 29% 1.5 mph 2.4 kmh 6.3 mph10.1 kmh 29.45 in997.3 mb 0.00 in0.0 mm 0.00 in/hr0.0 mm/hr 0.00 in0.0 mm
01:24 PM 61.5°F16.4°C 29.8°F-1.2°C 30% Calm Calm 6.3 mph10.1 kmh 29.45 in997.3 mb 0.00 in0.0 mm 0.00 in/hr0.0 mm/hr 0.00 in0.0 mm
01:29 PM 62.8°F17.1°C 30.9°F-0.6°C 30% 2.5 mph W4.0 kmh W 3.4 mph5.5 kmh 29.45 in997.3 mb 0.00 in0.0 mm 0.00 in/hr0.0 mm/hr 0.00 in0.0 mm
01:34 PM 62.4°F16.9°C 28.6°F-1.9°C 28% 2.8 mph NNW4.5 kmh NNW 4.9 mph7.9 kmh 29.45 in997.3 mb 0.00 in0.0 mm 0.00 in/hr0.0 mm/hr 0.00 in0.0 mm
01:39 PM 62.4°F16.9°C 29.6°F-1.3°C 29% 3.0 mph WNW4.8 kmh WNW 6.5 mph10.5 kmh 29.45 in997.3 mb 0.00 in0.0 mm 0.00 in/hr0.0 mm/hr 0.00 in0.0 mm
01:44 PM 63.0°F17.2°C 30.1°F-1.1°C 29% 1.5 mph WSW2.4 kmh WSW 6.5 mph10.5 kmh 29.44 in997.0 mb 0.00 in0.0 mm 0.00 in/hr0.0 mm/hr 0.00 in0.0 mm
01:49 PM 63.1°F17.3°C 29.3°F-1.5°C 28% 2.7 mph S4.3 kmh S 5.4 mph8.7 kmh 29.44 in997.0 mb 0.00 in0.0 mm 0.00 in/hr0.0 mm/hr 0.00 in0.0 mm
01:54 PM 62.8°F17.1°C 28.9°F-1.7°C 28% 2.5 mph WSW4.0 kmh WSW 5.4 mph8.7 kmh 29.44 in997.0 mb 0.00 in0.0 mm 0.00 in/hr0.0 mm/hr 0.00 in0.0 mm
01:59 PM 62.4°F16.9°C 28.6°F-1.9°C 28% 1.8 mph NW2.9 kmh NW 4.0 mph6.4 kmh 29.44 in997.0 mb 0.00 in0.0 mm 0.00 in/hr0.0 mm/hr 0.00 in0.0 mm
02:04 PM 62.2°F16.8°C 28.5°F-1.9°C 29% 2.1 mph WSW3.4 kmh WSW 3.8 mph6.1 kmh 29.44 in997.0 mb 0.00 in0.0 mm 0.00 in/hr0.0 mm/hr 0.00 in0.0 mm
02:09 PM 63.1°F17.3°C 29.3°F-1.5°C 28% 3.3 mph NE5.3 kmh NE 5.6 mph9.0 kmh 29.44 in997.0 mb 0.00 in0.0 mm 0.00 in/hr0.0 mm/hr 0.00 in0.0 mm
02:14 PM 63.7°F17.6°C 29.7°F-1.3°C 28% 2.9 mph WNW4.7 kmh WNW 5.6 mph9.0 kmh 29.43 in996.6 mb 0.00 in0.0 mm 0.00 in/hr0.0 mm/hr 0.00 in0.0 mm
02:19 PM 64.0°F17.8°C 30.1°F-1.1°C 28% 2.3 mph N3.7 kmh N 4.3 mph6.9 kmh 29.43 in996.6 mb 0.00 in0.0 mm 0.00 in/hr0.0 mm/hr 0.00 in0.0 mm
02:24 PM 64.0°F17.8°C 29.1°F-1.6°C 27% 1.6 mph WSW2.6 kmh WSW 3.4 mph5.5 kmh 29.43 in996.6 mb 0.00 in0.0 mm 0.00 in/hr0.0 mm/hr 0.00 in0.0 mm
02:29 PM 65.3°F18.5°C 30.2°F-1.0°C 27% 2.7 mph W4.3 kmh W 7.2 mph11.6 kmh 29.42 in996.3 mb 0.00 in0.0 mm 0.00 in/hr0.0 mm/hr 0.00 in0.0 mm
02:34 PM 65.8°F18.8°C 30.6°F-0.8°C 27% 3.0 mph W4.8 kmh W 7.2 mph11.6 kmh 29.42 in996.3 mb 0.00 in0.0 mm 0.00 in/hr0.0 mm/hr 0.00 in0.0 mm
02:39 PM 65.3°F18.5°C 29.2°F-1.6°C 26% 1.7 mph NNE2.7 kmh NNE 5.8 mph9.3 kmh 29.42 in996.3 mb 0.00 in0.0 mm 0.00 in/hr0.0 mm/hr 0.00 in0.0 mm
02:44 PM 65.7°F18.7°C 29.5°F-1.4°C 26% 3.3 mph S5.3 kmh S 5.8 mph9.3 kmh 29.42 in996.3 mb 0.00 in0.0 mm 0.00 in/hr0.0 mm/hr 0.00 in0.0 mm
02:49 PM 65.8°F18.8°C 29.6°F-1.3°C 26% 4.0 mph WNW6.4 kmh WNW 11.0 mph17.7 kmh 29.42 in996.3 mb 0.00 in0.0 mm 0.00 in/hr0.0 mm/hr 0.00 in0.0 mm
02:54 PM 65.8°F18.8°C 28.6°F-1.9°C 25% 2.6 mph N4.2 kmh N 11.0 mph17.7 kmh 29.42 in996.3 mb 0.00 in0.0 mm 0.00 in/hr0.0 mm/hr 0.00 in0.0 mm
02:59 PM 66.0°F18.9°C 29.8°F-1.2°C 26% 2.5 mph NW4.0 kmh NW 4.7 mph7.6 kmh 29.41 in995.9 mb 0.00 in0.0 mm 0.00 in/hr0.0 mm/hr 0.00 in0.0 mm
03:04 PM 66.4°F19.1°C 29.1°F-1.6°C 25% 3.5 mph NW5.6 kmh NW 4.7 mph7.6 kmh 29.41 in995.9 mb 0.00 in0.0 mm 0.00 in/hr0.0 mm/hr 0.00 in0.0 mm
03:09 PM 66.4°F19.1°C 30.1°F-1.1°C 26% 2.1 mph NW3.4 kmh NW 4.7 mph7.6 kmh 29.41 in995.9 mb 0.00 in0.0 mm 0.00 in/hr0.0 mm/hr 0.00 in0.0 mm
03:14 PM 67.1°F19.5°C 30.5°F-0.8°C 26% 3.4 mph NW5.5 kmh NW 7.8 mph12.6 kmh 29.41 in995.9 mb 0.00 in0.0 mm 0.00 in/hr0.0 mm/hr 0.00 in0.0 mm
03:19 PM 66.9°F19.4°C 29.6°F-1.3°C 25% 2.2 mph NW3.5 kmh NW 7.8 mph12.6 kmh 29.41 in995.9 mb 0.00 in0.0 mm 0.00 in/hr0.0 mm/hr 0.00 in0.0 mm
03:24 PM 66.7°F19.3°C 29.4°F-1.4°C 25% 3.2 mph NNW5.1 kmh NNW 7.4 mph11.9 kmh 29.41 in995.9 mb 0.00 in0.0 mm 0.00 in/hr0.0 mm/hr 0.00 in0.0 mm
03:29 PM 67.3°F19.6°C 29.9°F-1.2°C 25% 3.0 mph NNE4.8 kmh NNE 6.7 mph10.8 kmh 29.40 in995.6 mb 0.00 in0.0 mm 0.00 in/hr0.0 mm/hr 0.00 in0.0 mm
03:34 PM 66.4°F19.1°C 28.1°F-2.2°C 24% 2.6 mph NW4.2 kmh NW 9.8 mph15.8 kmh 29.40 in995.6 mb 0.00 in0.0 mm 0.00 in/hr0.0 mm/hr 0.00 in0.0 mm
03:39 PM 66.2°F19.0°C 28.9°F-1.7°C 25% 2.2 mph 3.5 kmh 9.8 mph15.8 kmh 29.40 in995.6 mb 0.00 in0.0 mm 0.00 in/hr0.0 mm/hr 0.00 in0.0 mm
03:44 PM 66.6°F19.2°C 28.2°F-2.1°C 24% 2.6 mph NE4.2 kmh NE 4.5 mph7.2 kmh 29.40 in995.6 mb 0.00 in0.0 mm 0.00 in/hr0.0 mm/hr 0.00 in0.0 mm
03:50 PM 67.1°F19.5°C 29.7°F-1.3°C 25% 1.9 mph NW3.1 kmh NW 4.9 mph7.9 kmh 29.40 in995.6 mb 0.00 in0.0 mm 0.00 in/hr0.0 mm/hr 0.00 in0.0 mm
03:55 PM 67.3°F19.6°C 29.9°F-1.2°C 25% 2.7 mph NW4.3 kmh NW 4.9 mph7.9 kmh 29.40 in995.6 mb 0.00 in0.0 mm 0.00 in/hr0.0 mm/hr 0.00 in0.0 mm
03:59 PM 67.8°F19.9°C 30.3°F-0.9°C 25% 1.9 mph NNW3.1 kmh NNW 3.8 mph6.1 kmh 29.40 in995.6 mb 0.00 in0.0 mm 0.00 in/hr0.0 mm/hr 0.00 in0.0 mm
04:05 PM 67.6°F19.8°C 29.2°F-1.6°C 24% 4.4 mph NNW7.1 kmh NNW 6.5 mph10.5 kmh 29.39 in995.3 mb 0.00 in0.0 mm 0.00 in/hr0.0 mm/hr 0.00 in0.0 mm
04:10 PM 66.6°F19.2°C 28.2°F-2.1°C 24% 4.7 mph NW7.6 kmh NW 8.5 mph13.7 kmh 29.40 in995.6 mb 0.00 in0.0 mm 0.00 in/hr0.0 mm/hr 0.00 in0.0 mm
04:15 PM 66.2°F19.0°C 27.9°F-2.3°C 24% 2.0 mph NE3.2 kmh NE 8.5 mph13.7 kmh 29.39 in995.3 mb 0.00 in0.0 mm 0.00 in/hr0.0 mm/hr 0.00 in0.0 mm
04:20 PM 66.2°F19.0°C 27.9°F-2.3°C 24% 2.9 mph NW4.7 kmh NW 6.3 mph10.1 kmh 29.39 in995.3 mb 0.00 in0.0 mm 0.00 in/hr0.0 mm/hr 0.00 in0.0 mm
04:25 PM 66.7°F19.3°C 28.4°F-2.0°C 24% 1.8 mph W2.9 kmh W 6.3 mph10.1 kmh 29.39 in995.3 mb 0.00 in0.0 mm 0.00 in/hr0.0 mm/hr 0.00 in0.0 mm
04:29 PM 66.9°F19.4°C 28.5°F-1.9°C 24% 2.7 mph N4.3 kmh N 5.4 mph8.7 kmh 29.39 in995.3 mb 0.00 in0.0 mm 0.00 in/hr0.0 mm/hr 0.00 in0.0 mm
04:35 PM 66.4°F19.1°C 28.1°F-2.2°C 24% 2.6 mph NNW4.2 kmh NNW 5.4 mph8.7 kmh 29.39 in995.3 mb 0.00 in0.0 mm 0.00 in/hr0.0 mm/hr 0.00 in0.0 mm
04:39 PM 66.4°F19.1°C 27.1°F-2.7°C 23% 2.8 mph NW4.5 kmh NW 11.4 mph18.3 kmh 29.39 in995.3 mb 0.00 in0.0 mm 0.00 in/hr0.0 mm/hr 0.00 in0.0 mm
04:44 PM 66.9°F19.4°C 28.5°F-1.9°C 24% 3.0 mph NNW4.8 kmh NNW 11.4 mph18.3 kmh 29.39 in995.3 mb 0.00 in0.0 mm 0.00 in/hr0.0 mm/hr 0.00 in0.0 mm
04:49 PM 66.9°F19.4°C 28.5°F-1.9°C 24% 4.4 mph W7.1 kmh W 5.6 mph9.0 kmh 29.39 in995.3 mb 0.00 in0.0 mm 0.00 in/hr0.0 mm/hr 0.00 in0.0 mm
04:55 PM 66.7°F19.3°C 28.4°F-2.0°C 24% 1.5 mph N2.4 kmh N 5.8 mph9.3 kmh 29.39 in995.3 mb 0.00 in0.0 mm 0.00 in/hr0.0 mm/hr 0.00 in0.0 mm
05:00 PM 66.9°F19.4°C 27.5°F-2.5°C 23% 4.6 mph NW7.4 kmh NW 9.8 mph15.8 kmh 29.39 in995.3 mb 0.00 in0.0 mm 0.00 in/hr0.0 mm/hr 0.00 in0.0 mm
05:05 PM 66.7°F19.3°C 28.4°F-2.0°C 24% 2.2 mph N3.5 kmh N 9.8 mph15.8 kmh 29.39 in995.3 mb 0.00 in0.0 mm 0.00 in/hr0.0 mm/hr 0.00 in0.0 mm
05:09 PM 66.6°F19.2°C 27.2°F-2.7°C 23% 3.4 mph WNW5.5 kmh WNW 7.2 mph11.6 kmh 29.39 in995.3 mb 0.00 in0.0 mm 0.00 in/hr0.0 mm/hr 0.00 in0.0 mm
05:15 PM 66.2°F19.0°C 26.9°F-2.8°C 23% 3.9 mph N6.3 kmh N 8.1 mph13.0 kmh 29.39 in995.3 mb 0.00 in0.0 mm 0.00 in/hr0.0 mm/hr 0.00 in0.0 mm
05:20 PM 65.8°F18.8°C 26.6°F-3.0°C 23% 2.9 mph N4.7 kmh N 8.1 mph13.0 kmh 29.39 in995.3 mb 0.00 in0.0 mm 0.00 in/hr0.0 mm/hr 0.00 in0.0 mm
05:25 PM 65.8°F18.8°C 27.6°F-2.4°C 24% 3.3 mph WNW5.3 kmh WNW 5.6 mph9.0 kmh 29.39 in995.3 mb 0.00 in0.0 mm 0.00 in/hr0.0 mm/hr 0.00 in0.0 mm
05:30 PM 65.1°F18.4°C 26.0°F-3.3°C 23% 3.5 mph NNE5.6 kmh NNE 7.2 mph11.6 kmh 29.39 in995.3 mb 0.00 in0.0 mm 0.00 in/hr0.0 mm/hr 0.00 in0.0 mm
05:35 PM 64.6°F18.1°C 26.6°F-3.0°C 24% 2.4 mph N3.9 kmh N 7.2 mph11.6 kmh 29.40 in995.6 mb 0.00 in0.0 mm 0.00 in/hr0.0 mm/hr 0.00 in0.0 mm
05:40 PM 64.2°F17.9°C 26.3°F-3.2°C 24% 2.6 mph N4.2 kmh N 4.5 mph7.2 kmh 29.40 in995.6 mb 0.00 in0.0 mm 0.00 in/hr0.0 mm/hr 0.00 in0.0 mm
05:45 PM 64.0°F17.8°C 26.1°F-3.3°C 24% 4.4 mph N7.1 kmh N 5.8 mph9.3 kmh 29.41 in995.9 mb 0.00 in0.0 mm 0.00 in/hr0.0 mm/hr 0.00 in0.0 mm
05:50 PM 63.5°F17.5°C 25.7°F-3.5°C 24% 3.5 mph N5.6 kmh N 5.8 mph9.3 kmh 29.41 in995.9 mb 0.00 in0.0 mm 0.00 in/hr0.0 mm/hr 0.00 in0.0 mm
05:55 PM 63.1°F17.3°C 26.3°F-3.2°C 25% 2.7 mph NW4.3 kmh NW 5.8 mph9.3 kmh 29.41 in995.9 mb 0.00 in0.0 mm 0.00 in/hr0.0 mm/hr 0.00 in0.0 mm
06:00 PM 63.0°F17.2°C 26.2°F-3.2°C 25% 2.4 mph N3.9 kmh N 4.9 mph7.9 kmh 29.42 in996.3 mb 0.00 in0.0 mm 0.00 in/hr0.0 mm/hr 0.00 in0.0 mm
06:05 PM 62.4°F16.9°C 25.7°F-3.5°C 25% 2.7 mph NNW4.3 kmh NNW 5.1 mph8.2 kmh 29.41 in995.9 mb 0.00 in0.0 mm 0.00 in/hr0.0 mm/hr 0.00 in0.0 mm
06:10 PM 62.2°F16.8°C 25.6°F-3.6°C 25% 4.5 mph NW7.2 kmh NW 9.8 mph15.8 kmh 29.41 in995.9 mb 0.00 in0.0 mm 0.00 in/hr0.0 mm/hr 0.00 in0.0 mm
06:15 PM 61.7°F16.5°C 25.1°F-3.8°C 25% 3.2 mph N5.1 kmh N 9.8 mph15.8 kmh 29.42 in996.3 mb 0.00 in0.0 mm 0.00 in/hr0.0 mm/hr 0.00 in0.0 mm
06:20 PM 61.5°F16.4°C 25.0°F-3.9°C 25% 4.6 mph NW7.4 kmh NW 7.6 mph12.2 kmh 29.42 in996.3 mb 0.00 in0.0 mm 0.00 in/hr0.0 mm/hr 0.00 in0.0 mm
06:25 PM 61.5°F16.4°C 25.0°F-3.9°C 25% 4.5 mph WNW7.2 kmh WNW 8.5 mph13.7 kmh 29.42 in996.3 mb 0.00 in0.0 mm 0.00 in/hr0.0 mm/hr 0.00 in0.0 mm
06:30 PM 61.3°F16.3°C 24.8°F-4.0°C 25% 3.4 mph NW5.5 kmh NW 8.5 mph13.7 kmh 29.43 in996.6 mb 0.00 in0.0 mm 0.00 in/hr0.0 mm/hr 0.00 in0.0 mm
06:34 PM 61.2°F16.2°C 24.7°F-4.1°C 25% 2.0 mph N3.2 kmh N 8.5 mph13.7 kmh 29.43 in996.6 mb 0.00 in0.0 mm 0.00 in/hr0.0 mm/hr 0.00 in0.0 mm
06:40 PM 60.6°F15.9°C 24.2°F-4.3°C 25% 4.1 mph N6.6 kmh N 7.6 mph12.2 kmh 29.44 in997.0 mb 0.00 in0.0 mm 0.00 in/hr0.0 mm/hr 0.00 in0.0 mm
06:45 PM 60.4°F15.8°C 25.0°F-3.9°C 26% 2.7 mph N4.3 kmh N 7.6 mph12.2 kmh 29.44 in997.0 mb 0.00 in0.0 mm 0.00 in/hr0.0 mm/hr 0.00 in0.0 mm
06:50 PM 59.9°F15.5°C 24.5°F-4.2°C 26% 2.6 mph NW4.2 kmh NW 6.7 mph10.8 kmh 29.44 in997.0 mb 0.00 in0.0 mm 0.00 in/hr0.0 mm/hr 0.00 in0.0 mm
06:55 PM 59.5°F15.3°C 24.2°F-4.3°C 26% 2.3 mph NNW3.7 kmh NNW 5.4 mph8.7 kmh 29.44 in997.0 mb 0.00 in0.0 mm 0.00 in/hr0.0 mm/hr 0.00 in0.0 mm
07:00 PM 59.4°F15.2°C 24.1°F-4.4°C 26% 2.5 mph N4.0 kmh N 5.4 mph8.7 kmh 29.45 in997.3 mb 0.00 in0.0 mm 0.00 in/hr0.0 mm/hr 0.00 in0.0 mm
07:05 PM 58.8°F14.9°C 23.6°F-4.7°C 26% 2.3 mph NNE3.7 kmh NNE 5.4 mph8.7 kmh 29.45 in997.3 mb 0.00 in0.0 mm 0.00 in/hr0.0 mm/hr 0.00 in0.0 mm
07:10 PM 58.8°F14.9°C 23.6°F-4.7°C 26% 1.9 mph N3.1 kmh N 3.8 mph6.1 kmh 29.45 in997.3 mb 0.00 in0.0 mm 0.00 in/hr0.0 mm/hr 0.00 in0.0 mm
07:15 PM 58.8°F14.9°C 23.6°F-4.7°C 26% 2.3 mph N3.7 kmh N 4.5 mph7.2 kmh 29.45 in997.3 mb 0.00 in0.0 mm 0.00 in/hr0.0 mm/hr 0.00 in0.0 mm
07:20 PM 58.5°F14.7°C 24.3°F-4.3°C 27% 2.3 mph N3.7 kmh N 4.5 mph7.2 kmh 29.45 in997.3 mb 0.00 in0.0 mm 0.00 in/hr0.0 mm/hr 0.00 in0.0 mm
07:25 PM 58.1°F14.5°C 24.0°F-4.4°C 27% 2.9 mph NNW4.7 kmh NNW 6.0 mph9.7 kmh 29.46 in997.6 mb 0.00 in0.0 mm 0.00 in/hr0.0 mm/hr 0.00 in0.0 mm
07:30 PM 57.9°F14.4°C 23.8°F-4.6°C 27% 2.8 mph NW4.5 kmh NW 6.0 mph9.7 kmh 29.46 in997.6 mb 0.00 in0.0 mm 0.00 in/hr0.0 mm/hr 0.00 in0.0 mm
07:35 PM 57.6°F14.2°C 23.5°F-4.7°C 27% 1.9 mph NNW3.1 kmh NNW 3.8 mph6.1 kmh 29.47 in998.0 mb 0.00 in0.0 mm 0.00 in/hr0.0 mm/hr 0.00 in0.0 mm
07:40 PM 57.4°F14.1°C 23.3°F-4.8°C 27% 2.5 mph NNW4.0 kmh NNW 8.5 mph13.7 kmh 29.47 in998.0 mb 0.00 in0.0 mm 0.00 in/hr0.0 mm/hr 0.00 in0.0 mm
07:45 PM 57.0°F13.9°C 23.0°F-5.0°C 27% 1.1 mph NNE1.8 kmh NNE 8.5 mph13.7 kmh 29.47 in998.0 mb 0.00 in0.0 mm 0.00 in/hr0.0 mm/hr 0.00 in0.0 mm
07:50 PM 56.8°F13.8°C 22.9°F-5.1°C 27% 2.1 mph NW3.4 kmh NW 4.0 mph6.4 kmh 29.47 in998.0 mb 0.00 in0.0 mm 0.00 in/hr0.0 mm/hr 0.00 in0.0 mm
07:55 PM 56.5°F13.6°C 22.6°F-5.2°C 27% 2.7 mph NNW4.3 kmh NNW 6.0 mph9.7 kmh 29.47 in998.0 mb 0.00 in0.0 mm 0.00 in/hr0.0 mm/hr 0.00 in0.0 mm
08:00 PM 56.3°F13.5°C 23.4°F-4.8°C 28% 3.5 mph WNW5.6 kmh WNW 6.3 mph10.1 kmh 29.48 in998.3 mb 0.00 in0.0 mm 0.00 in/hr0.0 mm/hr 0.00 in0.0 mm
08:05 PM 56.1°F13.4°C 23.2°F-4.9°C 28% 2.3 mph NNW3.7 kmh NNW 6.5 mph10.5 kmh 29.48 in998.3 mb 0.00 in0.0 mm 0.00 in/hr0.0 mm/hr 0.00 in0.0 mm
08:10 PM 55.9°F13.3°C 23.0°F-5.0°C 28% 1.9 mph N3.1 kmh N 6.5 mph10.5 kmh 29.48 in998.3 mb 0.00 in0.0 mm 0.00 in/hr0.0 mm/hr 0.00 in0.0 mm
08:15 PM 55.8°F13.2°C 23.8°F-4.6°C 29% 1.8 mph N2.9 kmh N 3.6 mph5.8 kmh 29.49 in998.6 mb 0.00 in0.0 mm 0.00 in/hr0.0 mm/hr 0.00 in0.0 mm
08:20 PM 55.6°F13.1°C 23.6°F-4.7°C 29% 2.3 mph N3.7 kmh N 4.0 mph6.4 kmh 29.49 in998.6 mb 0.00 in0.0 mm 0.00 in/hr0.0 mm/hr 0.00 in0.0 mm
08:25 PM 55.2°F12.9°C 24.3°F-4.3°C 30% 1.8 mph NW2.9 kmh NW 4.0 mph6.4 kmh 29.49 in998.6 mb 0.00 in0.0 mm 0.00 in/hr0.0 mm/hr 0.00 in0.0 mm
08:30 PM 55.0°F12.8°C 24.2°F-4.3°C 30% 3.8 mph NW6.1 kmh NW 6.5 mph10.5 kmh 29.50 in999.0 mb 0.00 in0.0 mm 0.00 in/hr0.0 mm/hr 0.00 in0.0 mm
08:35 PM 54.7°F12.6°C 24.5°F-4.2°C 31% 3.8 mph N6.1 kmh N 6.5 mph10.5 kmh 29.50 in999.0 mb 0.00 in0.0 mm 0.00 in/hr0.0 mm/hr 0.00 in0.0 mm
08:40 PM 54.3°F12.4°C 24.9°F-3.9°C 32% 1.7 mph 2.7 kmh 5.8 mph9.3 kmh 29.51 in999.3 mb 0.00 in0.0 mm 0.00 in/hr0.0 mm/hr 0.00 in0.0 mm
08:45 PM 53.8°F12.1°C 24.5°F-4.2°C 32% 4.4 mph NNW7.1 kmh NNW 10.7 mph17.2 kmh 29.52 in999.7 mb 0.00 in0.0 mm 0.00 in/hr0.0 mm/hr 0.00 in0.0 mm
08:50 PM 53.2°F11.8°C 24.7°F-4.1°C 33% 4.9 mph N7.9 kmh N 10.7 mph17.2 kmh 29.52 in999.7 mb 0.00 in0.0 mm 0.00 in/hr0.0 mm/hr 0.00 in0.0 mm
08:55 PM 52.7°F11.5°C 24.9°F-3.9°C 34% 4.0 mph N6.4 kmh N 9.4 mph15.1 kmh 29.53 in1000.0 mb 0.00 in0.0 mm 0.00 in/hr0.0 mm/hr 0.00 in0.0 mm
09:00 PM 52.3°F11.3°C 24.6°F-4.1°C 34% 2.9 mph N4.7 kmh N 8.5 mph13.7 kmh 29.54 in1000.3 mb 0.00 in0.0 mm 0.00 in/hr0.0 mm/hr 0.00 in0.0 mm
09:05 PM 52.0°F11.1°C 25.0°F-3.9°C 35% 3.3 mph NNE5.3 kmh NNE 6.3 mph10.1 kmh 29.53 in1000.0 mb 0.00 in0.0 mm 0.00 in/hr0.0 mm/hr 0.00 in0.0 mm
09:10 PM 51.6°F10.9°C 25.3°F-3.7°C 36% 3.6 mph N5.8 kmh N 8.9 mph14.3 kmh 29.54 in1000.3 mb 0.00 in0.0 mm 0.00 in/hr0.0 mm/hr 0.00 in0.0 mm
09:15 PM 51.3°F10.7°C 25.0°F-3.9°C 36% 4.8 mph N7.7 kmh N 8.9 mph14.3 kmh 29.54 in1000.3 mb 0.00 in0.0 mm 0.00 in/hr0.0 mm/hr 0.00 in0.0 mm
09:20 PM 50.9°F10.5°C 25.4°F-3.7°C 37% 3.1 mph NNE5.0 kmh NNE 8.5 mph13.7 kmh 29.55 in1000.7 mb 0.00 in0.0 mm 0.00 in/hr0.0 mm/hr 0.00 in0.0 mm
09:25 PM 50.7°F10.4°C 25.2°F-3.8°C 37% 4.0 mph N6.4 kmh N 6.9 mph11.1 kmh 29.55 in1000.7 mb 0.00 in0.0 mm 0.00 in/hr0.0 mm/hr 0.00 in0.0 mm
09:30 PM 50.5°F10.3°C 25.7°F-3.5°C 38% 3.3 mph N5.3 kmh N 7.6 mph12.2 kmh 29.56 in1001.0 mb 0.00 in0.0 mm 0.00 in/hr0.0 mm/hr 0.00 in0.0 mm
09:35 PM 50.2°F10.1°C 25.4°F-3.7°C 38% 2.0 mph N3.2 kmh N 7.8 mph12.6 kmh 29.56 in1001.0 mb 0.00 in0.0 mm 0.00 in/hr0.0 mm/hr 0.00 in0.0 mm
09:40 PM 49.8°F9.9°C 25.1°F-3.8°C 38% 2.0 mph NNW3.2 kmh NNW 7.8 mph12.6 kmh 29.57 in1001.4 mb 0.00 in0.0 mm 0.00 in/hr0.0 mm/hr 0.00 in0.0 mm
09:45 PM 49.8°F9.9°C 25.8°F-3.4°C 39% 1.1 mph 1.8 kmh 3.6 mph5.8 kmh 29.57 in1001.4 mb 0.00 in0.0 mm 0.00 in/hr0.0 mm/hr 0.00 in0.0 mm
09:50 PM 49.5°F9.7°C 25.4°F-3.7°C 39% 3.3 mph N5.3 kmh N 4.7 mph7.6 kmh 29.57 in1001.4 mb 0.00 in0.0 mm 0.00 in/hr0.0 mm/hr 0.00 in0.0 mm
09:55 PM 49.3°F9.6°C 25.3°F-3.7°C 39% 3.3 mph N5.3 kmh N 7.4 mph11.9 kmh 29.57 in1001.4 mb 0.00 in0.0 mm 0.00 in/hr0.0 mm/hr 0.00 in0.0 mm
10:00 PM 48.9°F9.4°C 24.9°F-3.9°C 39% 3.9 mph 6.3 kmh 7.4 mph11.9 kmh 29.57 in1001.4 mb 0.00 in0.0 mm 0.00 in/hr0.0 mm/hr 0.00 in0.0 mm
10:05 PM 48.7°F9.3°C 25.5°F-3.6°C 40% 3.1 mph N5.0 kmh N 7.2 mph11.6 kmh 29.57 in1001.4 mb 0.00 in0.0 mm 0.00 in/hr0.0 mm/hr 0.00 in0.0 mm
10:10 PM 48.7°F9.3°C 25.5°F-3.6°C 40% 3.0 mph NNW4.8 kmh NNW 8.3 mph13.4 kmh 29.57 in1001.4 mb 0.00 in0.0 mm 0.00 in/hr0.0 mm/hr 0.00 in0.0 mm
10:15 PM 48.4°F9.1°C 25.1°F-3.8°C 40% 2.0 mph N3.2 kmh N 8.3 mph13.4 kmh 29.57 in1001.4 mb 0.00 in0.0 mm 0.00 in/hr0.0 mm/hr 0.00 in0.0 mm
10:20 PM 48.2°F9.0°C 25.0°F-3.9°C 40% 2.7 mph NNW4.3 kmh NNW 6.0 mph9.7 kmh 29.57 in1001.4 mb 0.00 in0.0 mm 0.00 in/hr0.0 mm/hr 0.00 in0.0 mm
10:25 PM 48.0°F8.9°C 24.8°F-4.0°C 40% 2.2 mph N3.5 kmh N 6.0 mph9.7 kmh 29.57 in1001.4 mb 0.00 in0.0 mm 0.00 in/hr0.0 mm/hr 0.00 in0.0 mm
10:30 PM 47.8°F8.8°C 24.7°F-4.1°C 40% 2.8 mph N4.5 kmh N 6.3 mph10.1 kmh 29.57 in1001.4 mb 0.00 in0.0 mm 0.00 in/hr0.0 mm/hr 0.00 in0.0 mm
10:35 PM 47.7°F8.7°C 25.0°F-3.9°C 41% 2.2 mph N3.5 kmh N 6.3 mph10.1 kmh 29.57 in1001.4 mb 0.00 in0.0 mm 0.00 in/hr0.0 mm/hr 0.00 in0.0 mm
10:40 PM 47.5°F8.6°C 24.9°F-3.9°C 41% 2.7 mph N4.3 kmh N 5.8 mph9.3 kmh 29.58 in1001.7 mb 0.00 in0.0 mm 0.00 in/hr0.0 mm/hr 0.00 in0.0 mm
10:45 PM 47.1°F8.4°C 24.5°F-4.2°C 41% 2.8 mph 4.5 kmh 5.8 mph9.3 kmh 29.58 in1001.7 mb 0.00 in0.0 mm 0.00 in/hr0.0 mm/hr 0.00 in0.0 mm
10:50 PM 46.9°F8.3°C 24.9°F-3.9°C 42% 2.6 mph N4.2 kmh N 5.1 mph8.2 kmh 29.58 in1001.7 mb 0.00 in0.0 mm 0.00 in/hr0.0 mm/hr 0.00 in0.0 mm
10:55 PM 46.9°F8.3°C 24.9°F-3.9°C 42% 2.3 mph N3.7 kmh N 4.7 mph7.6 kmh 29.58 in1001.7 mb 0.00 in0.0 mm 0.00 in/hr0.0 mm/hr 0.00 in0.0 mm
11:00 PM 46.6°F8.1°C 24.6°F-4.1°C 42% 1.4 mph 2.3 kmh 3.1 mph5.0 kmh 29.59 in1002.0 mb 0.00 in0.0 mm 0.00 in/hr0.0 mm/hr 0.00 in0.0 mm
11:05 PM 46.6°F8.1°C 25.1°F-3.8°C 43% Calm Calm 2.7 mph4.3 kmh 29.59 in1002.0 mb 0.00 in0.0 mm 0.00 in/hr0.0 mm/hr 0.00 in0.0 mm
11:10 PM 46.2°F7.9°C 24.8°F-4.0°C 43% Calm Calm -- 29.59 in1002.0 mb 0.00 in0.0 mm 0.00 in/hr0.0 mm/hr 0.00 in0.0 mm
11:15 PM 46.0°F7.8°C 25.2°F-3.8°C 44% Calm Calm 2.5 mph4.0 kmh 29.59 in1002.0 mb 0.00 in0.0 mm 0.00 in/hr0.0 mm/hr 0.00 in0.0 mm
11:20 PM 45.7°F7.6°C 24.9°F-3.9°C 44% 2.2 mph NNE3.5 kmh NNE 2.5 mph4.0 kmh 29.59 in1002.0 mb 0.00 in0.0 mm 0.00 in/hr0.0 mm/hr 0.00 in0.0 mm
11:25 PM 45.7°F7.6°C 24.9°F-3.9°C 44% Calm Calm 3.1 mph5.0 kmh 29.59 in1002.0 mb 0.00 in0.0 mm 0.00 in/hr0.0 mm/hr 0.00 in0.0 mm
11:30 PM 45.5°F7.5°C 24.7°F-4.1°C 44% 3.0 mph N4.8 kmh N 3.6 mph5.8 kmh 29.59 in1002.0 mb 0.00 in0.0 mm 0.00 in/hr0.0 mm/hr 0.00 in0.0 mm
11:35 PM 45.3°F7.4°C 24.5°F-4.2°C 44% Calm Calm 3.6 mph5.8 kmh 29.59 in1002.0 mb 0.00 in0.0 mm 0.00 in/hr0.0 mm/hr 0.00 in0.0 mm
11:40 PM 45.1°F7.3°C 23.8°F-4.6°C 43% 3.9 mph NW6.3 kmh NW 6.0 mph9.7 kmh 29.59 in1002.0 mb 0.00 in0.0 mm 0.00 in/hr0.0 mm/hr 0.00 in0.0 mm
11:45 PM 45.1°F7.3°C 23.8°F-4.6°C 43% 0.9 mph 1.4 kmh 6.0 mph9.7 kmh 29.59 in1002.0 mb 0.00 in0.0 mm 0.00 in/hr0.0 mm/hr 0.00 in0.0 mm
11:50 PM 45.1°F7.3°C 23.8°F-4.6°C 43% 2.5 mph NW4.0 kmh NW 6.3 mph10.1 kmh 29.59 in1002.0 mb 0.00 in0.0 mm 0.00 in/hr0.0 mm/hr 0.00 in0.0 mm
11:55 PM 45.0°F7.2°C 23.7°F-4.6°C 43% 2.9 mph 4.7 kmh 6.3 mph10.1 kmh 29.59 in1002.0 mb 0.00 in0.0 mm 0.00 in/hr0.0 mm/hr 0.00 in0.0 mm